Time,TemperatureF,DewpointF,PressureIn,WindDirection,WindDirectionDegrees,WindSpeedMPH,WindSpeedGustMPH,Humidity,HourlyPrecipIn,Conditions,Clouds,dailyrainin,SoftwareType,DateUTC
2013-04-17 00:00:00,26.6,24.1,30.31,NW,319,0.0,0.0,90,0.00,,,0.06,Wunderground v.1.15,2013-04-17 06:00:00,
2013-04-17 00:30:00,26.4,24.1,30.32,WNW,288,0.0,0.0,91,0.00,,,0.00,Wunderground v.1.15,2013-04-17 06:30:00,
2013-04-17 01:00:00,26.4,24.1,30.31,NW,326,0.0,0.0,91,0.00,,,0.00,Wunderground v.1.15,2013-04-17 07:00:00,
2013-04-17 01:30:00,26.3,24.0,30.30,NW,305,0.0,0.0,91,0.00,,,0.00,Wunderground v.1.15,2013-04-17 07:30:00,
2013-04-17 02:00:00,26.1,23.8,30.31,NW,312,0.0,0.0,91,0.00,,,0.00,Wunderground v.1.15,2013-04-17 08:00:00,
2013-04-17 02:30:00,26.0,23.7,30.29,NW,310,0.0,0.0,91,0.00,,,0.00,Wunderground v.1.15,2013-04-17 08:30:00,
2013-04-17 03:00:00,25.8,23.5,30.28,ENE,66,0.0,0.0,91,0.00,,,0.00,Wunderground v.1.15,2013-04-17 09:00:00,
2013-04-17 03:30:00,25.6,23.3,30.29,East,92,0.0,0.0,91,0.00,,,0.00,Wunderground v.1.15,2013-04-17 09:30:00,
2013-04-17 04:00:00,25.4,23.1,30.28,East,89,0.0,0.0,91,0.00,,,0.00,Wunderground v.1.15,2013-04-17 10:00:00,
2013-04-17 04:30:00,25.0,22.7,30.26,ENE,64,0.0,0.0,91,0.00,,,0.00,Wunderground v.1.15,2013-04-17 10:30:00,
2013-04-17 05:00:00,24.8,22.5,30.26,ENE,64,0.0,0.0,91,0.00,,,0.00,Wunderground v.1.15,2013-04-17 11:00:00,
2013-04-17 05:30:00,24.8,22.5,30.26,ENE,64,0.0,0.0,91,0.00,,,0.00,Wunderground v.1.15,2013-04-17 11:30:00,
2013-04-17 06:00:00,24.7,22.4,30.26,ENE,64,0.0,0.0,91,0.00,,,0.00,Wunderground v.1.15,2013-04-17 12:00:00,
2013-04-17 06:30:00,24.5,22.2,30.26,NE,49,0.0,0.0,91,0.00,,,0.00,Wunderground v.1.15,2013-04-17 12:30:00,
2013-04-17 07:00:00,24.7,22.4,30.28,NE,40,0.0,0.0,91,0.00,,,0.00,Wunderground v.1.15,2013-04-17 13:00:00,
2013-04-17 07:30:00,24.7,22.4,30.28,NNE,25,0.0,0.0,91,0.00,,,0.00,Wunderground v.1.15,2013-04-17 13:30:00,
2013-04-17 08:00:00,25.3,22.8,30.29,NE,35,0.0,0.0,90,0.00,,,0.00,Wunderground v.1.15,2013-04-17 14:00:00,
2013-04-17 08:30:00,25.6,23.1,30.29,NNE,27,0.0,0.0,90,0.00,,,0.00,Wunderground v.1.15,2013-04-17 14:30:00,
2013-04-17 09:00:00,26.3,23.5,30.29,NNE,18,0.0,0.0,89,0.00,,,0.00,Wunderground v.1.15,2013-04-17 15:00:00,
2013-04-17 09:30:00,26.7,23.6,30.28,NNW,346,0.0,0.0,88,0.00,,,0.00,Wunderground v.1.15,2013-04-17 15:30:00,
2013-04-17 10:00:00,27.6,24.0,30.28,North,5,1.0,1.0,86,0.00,,,0.00,Wunderground v.1.15,2013-04-17 16:00:00,
2013-04-17 10:30:00,28.2,24.3,30.26,NNE,19,3.0,3.0,85,0.00,,,0.00,Wunderground v.1.15,2013-04-17 16:30:00,
2013-04-17 11:00:00,28.5,24.0,30.26,ENE,61,3.0,5.0,83,0.00,,,0.00,Wunderground v.1.15,2013-04-17 17:00:00,
2013-04-17 11:30:00,28.1,23.6,30.26,NW,314,3.0,5.0,83,0.00,,,0.01,Wunderground v.1.15,2013-04-17 17:30:00,
2013-04-17 12:00:00,27.9,22.8,30.25,NNE,27,5.0,5.0,81,0.00,,,0.01,Wunderground v.1.15,2013-04-17 18:00:00,
2013-04-17 12:30:00,27.6,22.5,30.24,North,355,5.0,5.0,81,0.09,,,0.10,Wunderground v.1.15,2013-04-17 18:30:00,
2013-04-17 13:00:00,27.8,22.4,30.25,NE,37,5.0,5.0,80,0.08,,,0.14,Wunderground v.1.15,2013-04-17 19:00:00,
2013-04-17 13:30:00,27.3,22.5,30.26,NNW,338,4.0,6.0,82,0.04,,,0.17,Wunderground v.1.15,2013-04-17 19:30:00,
2013-04-17 15:00:00,28.2,23.7,30.24,NE,42,4.0,6.0,83,0.00,,,0.22,Wunderground v.1.15,2013-04-17 21:00:00,
2013-04-17 15:30:00,28.1,23.3,30.24,North,355,4.0,4.0,82,0.00,,,0.23,Wunderground v.1.15,2013-04-17 21:30:00,
2013-04-17 16:00:00,28.2,23.7,30.24,NW,307,3.0,3.0,83,0.00,,,0.24,Wunderground v.1.15,2013-04-17 22:00:00,
2013-04-17 16:30:00,28.2,23.4,30.24,WNW,303,4.0,10.0,82,0.00,,,0.25,Wunderground v.1.15,2013-04-17 22:30:00,
2013-04-17 17:00:00,27.9,23.4,30.23,West,280,5.0,5.0,83,0.00,,,0.25,Wunderground v.1.15,2013-04-17 23:00:00,
2013-04-17 17:30:00,27.3,23.4,30.24,WNW,284,5.0,5.0,85,0.00,,,0.25,Wunderground v.1.15,2013-04-17 23:30:00,
2013-04-17 18:00:00,27.5,23.9,30.25,NW,326,3.0,4.0,86,0.00,,,0.25,Wunderground v.1.15,2013-04-18 00:00:00,
2013-04-17 18:30:00,27.0,23.6,30.26,NE,45,4.0,4.0,87,0.00,,,0.25,Wunderground v.1.15,2013-04-18 00:30:00,
2013-04-17 19:00:00,27.0,23.9,30.25,NNW,328,4.0,4.0,88,0.00,,,0.25,Wunderground v.1.15,2013-04-18 01:00:00,
2013-04-17 19:30:00,26.7,23.6,30.25,NNE,15,5.0,5.0,88,0.00,,,0.25,Wunderground v.1.15,2013-04-18 01:30:00,
2013-04-17 20:00:00,26.3,23.0,30.26,NW,320,4.0,9.0,87,0.00,,,0.25,Wunderground v.1.15,2013-04-18 02:00:00,
2013-04-17 20:30:00,26.3,22.4,30.24,NW,313,5.0,5.0,85,0.00,,,0.25,Wunderground v.1.15,2013-04-18 02:30:00,
2013-04-17 21:00:00,26.1,22.5,30.26,WNW,289,3.0,3.0,86,0.00,,,0.25,Wunderground v.1.15,2013-04-18 03:00:00,
2013-04-17 21:30:00,26.3,22.1,30.28,WNW,291,3.0,3.0,84,0.00,,,0.25,Wunderground v.1.15,2013-04-18 03:30:00,
2013-04-17 22:00:00,26.1,21.9,30.29,WNW,299,3.0,3.0,84,0.00,,,0.25,Wunderground v.1.15,2013-04-18 04:00:00,
2013-04-17 22:30:00,26.0,22.1,30.28,NW,322,4.0,6.0,85,0.00,,,0.25,Wunderground v.1.15,2013-04-18 04:30:00,
2013-04-17 23:00:00,25.8,21.6,30.26,WNW,300,4.0,5.0,84,0.00,,,0.25,Wunderground v.1.15,2013-04-18 05:00:00,
2013-04-17 23:30:00,25.6,22.0,30.24,NE,41,4.0,4.0,86,0.00,,,0.25,Wunderground v.1.15,2013-04-18 05:30:00,